Tara, Russia
Current Conditions -  °F | °C
As of 4:00 PM on Saturday 20 Dec 2014 (Local Time) from UNOO Reporting Station
Scattered Clouds Scattered Clouds  
Wind Chill: -10°   Ceiling: Unl
Heat Index:   Visibility: 4mi
Dew Point: -2°   Wind: 4mph
Humidity: 92%   Direction: 160°SSE
Pressure: 30.18"   Gusts: NA
Location:  56.9°N, 74.37°E
Report Text: UNOO 201000Z 16002MPS 6000 SCT200 M18/M19 Q1022 25820550 NOSIGRMK QFE758
Loading
Personal Weather Stations






























Interactive Weather Map New forecast layout! Learn more

10-Day Weather Forecast

Advertisements
Track Severe Weather on mobile